首页
METAR-TAF:

METAR-TAF

机场 :

Watertown, 紐約州, 美国

纬度: 43-59-31N, 经度: 076-01-18W, 海拔: 99米

当前天气观测

该预报发布于21分钟前的00:19 UTC
风速12节,风向北转东北
温度 -5°C
湿度 86%
气压 1018 hPa
能見度: 1.6公里
阴天层高于2300英尺
小雪, 轻雾

METAR: KART 120019Z AUTO 03012KT 1SM -SN BR OVC023 M05/M07 A3006 RMK AO2 P0001 T10501067

时间: 19:40 (00:40 UTC)

预报

该预报发布于1小时和15分钟前的23:25 UTC
预报有效从12日的 00点(UTC)到 12日的 24点(UTC)
风速13节,风向北转东北,有时为19节阵风
能見度: 0.8公里
阴天层高于1500英尺
短暂存在
从 12日的 00点(UTC)到 12日的 04点(UTC)
能見度: 0.4公里
层高于1200英尺
大雪
从 12日的 0900点(UTC)
风速12节,风向
能見度: 2.4公里
阴天层高于2000英尺
小雪
从 12日的 1200点(UTC)
风速11节,风向北转西北
能見度: 1.6公里
阴天层高于2000英尺
小阵雪
从 12日的 1500点(UTC)
风速12节,风向西北
能見度: 10公里
多云层高于2500英尺

TAF: KART 112325Z 1200/1224 03013G19KT 1/2SM SN OVC015 TEMPO 1200/1204 1/4SM +SN VV012 FM120900 01012KT 1 1/2SM -SN OVC020 FM121200 34011KT 4SM -SHSN OVC020 FM121500 31012KT P6SM BKN025

超过4000个机场的气象观测和天气预报(METAR&TAF报告)。

可查询的气象台以黄色和红色小点在地图上表示。

将鼠标移到小点上方,可查看气象台名称。

然后点击查看天气观测和预报。

如需切换地图:点击带黑十字的绿色按钮放大地图;点击带横线的绿色按钮缩小地图;或者点击绿色箭头查看邻近地区的地图。


METAR-TAF: